createdAt,value
2019-01-23T00:00:59.694Z,29.53
2019-01-23T00:03:29.851Z,34.60
2019-01-23T00:06:00.080Z,36.63
2019-01-23T00:08:30.022Z,27.97
2019-01-23T00:10:59.899Z,27.60
2019-01-23T00:13:29.799Z,26.57
2019-01-23T00:15:59.758Z,32.30
2019-01-23T00:18:29.692Z,28.63
2019-01-23T00:20:59.891Z,30.57
2019-01-23T00:23:29.872Z,34.30
2019-01-23T00:25:59.855Z,37.87
2019-01-23T00:28:29.778Z,41.07
2019-01-23T00:30:59.734Z,40.97
2019-01-23T00:33:29.641Z,35.70
2019-01-23T00:36:00.296Z,32.70
2019-01-23T00:38:30.226Z,39.03
2019-01-23T00:41:00.460Z,39.93
2019-01-23T00:43:30.398Z,40.27
2019-01-23T00:46:00.371Z,33.07
2019-01-23T00:48:30.274Z,39.20
2019-01-23T00:51:00.574Z,34.83
2019-01-23T00:53:30.498Z,34.07
2019-01-23T00:56:00.555Z,34.47
2019-01-23T00:58:30.435Z,41.17
2019-01-23T01:01:00.518Z,40.40
2019-01-23T01:03:30.423Z,46.20
2019-01-23T01:06:00.452Z,45.23
2019-01-23T01:08:30.443Z,41.47
2019-01-23T01:11:00.358Z,46.73
2019-01-23T01:13:30.310Z,41.47
2019-01-23T01:16:00.570Z,33.60
2019-01-23T01:18:30.588Z,39.77
2019-01-23T01:21:00.464Z,38.70
2019-01-23T01:23:30.503Z,39.43
2019-01-23T01:26:00.438Z,35.60
2019-01-23T01:28:30.293Z,41.00
2019-01-23T01:31:00.250Z,34.47
2019-01-23T01:33:33.952Z,38.10
2019-01-23T01:36:01.664Z,40.20
2019-01-23T01:38:31.870Z,38.33
2019-01-23T01:41:01.931Z,37.83
2019-01-23T01:43:31.830Z,33.90
2019-01-23T01:46:01.803Z,39.43
2019-01-23T01:48:31.722Z,39.43
2019-01-23T01:51:01.676Z,29.93
2019-01-23T01:53:31.736Z,30.20
2019-01-23T01:56:01.647Z,41.83
2019-01-23T01:58:31.585Z,35.87
2019-01-23T02:01:01.488Z,37.03
2019-01-23T02:03:31.422Z,33.13
2019-01-23T02:06:01.401Z,29.93
2019-01-23T02:08:31.847Z,29.90
2019-01-23T02:11:02.027Z,34.20
2019-01-23T02:13:32.356Z,29.03
2019-01-23T02:16:02.331Z,30.13
2019-01-23T02:18:32.199Z,27.07
2019-01-23T02:21:02.081Z,28.73
2019-01-23T02:23:32.444Z,26.80
2019-01-23T02:26:02.369Z,28.97
2019-01-23T02:28:32.303Z,29.93
2019-01-23T02:31:02.303Z,29.90
2019-01-23T02:33:32.215Z,27.73
2019-01-23T02:36:02.428Z,30.10
2019-01-23T02:38:32.430Z,27.13
2019-01-23T02:41:02.268Z,36.47
2019-01-23T02:43:32.205Z,34.13
2019-01-23T02:46:02.103Z,34.23
2019-01-23T02:48:31.987Z,32.90
2019-01-23T02:51:02.195Z,31.53
2019-01-23T02:53:32.169Z,37.60
2019-01-23T02:56:02.334Z,33.30
2019-01-23T02:58:32.225Z,32.50
2019-01-23T03:01:02.328Z,24.97
2019-01-23T03:03:32.216Z,32.33
2019-01-23T03:06:02.252Z,33.23
2019-01-23T03:08:32.242Z,29.37
2019-01-23T03:11:02.461Z,30.87
2019-01-23T03:13:32.365Z,30.73
2019-01-23T03:16:02.361Z,32.30
2019-01-23T03:18:32.313Z,32.70
2019-01-23T03:21:02.178Z,32.87
2019-01-23T03:23:32.197Z,37.87
2019-01-23T03:26:03.025Z,33.87
2019-01-23T03:28:32.902Z,31.20
2019-01-23T03:31:02.897Z,36.73
2019-01-23T03:33:32.783Z,37.63
2019-01-23T03:36:02.665Z,41.20
2019-01-23T03:38:32.652Z,40.37
2019-01-23T03:41:02.931Z,44.53
2019-01-23T03:43:32.843Z,41.30
2019-01-23T03:46:02.787Z,39.87
2019-01-23T03:48:32.724Z,37.13
2019-01-23T03:51:02.626Z,48.17
2019-01-23T03:53:32.596Z,39.87
2019-01-23T03:56:02.910Z,46.37
2019-01-23T03:58:32.979Z,42.50
2019-01-23T04:01:03.269Z,44.77
2019-01-23T04:03:33.386Z,38.43
2019-01-23T04:06:03.329Z,38.47
2019-01-23T04:08:33.326Z,41.37
2019-01-23T04:11:03.593Z,37.80
2019-01-23T04:13:33.698Z,47.70
2019-01-23T04:16:03.814Z,56.63
2019-01-23T04:18:33.753Z,54.20
2019-01-23T04:21:03.763Z,43.67
2019-01-23T04:23:33.760Z,48.57
2019-01-23T04:26:04.058Z,48.30
2019-01-23T04:28:33.932Z,45.97
2019-01-23T04:31:03.933Z,43.47
2019-01-23T04:33:33.854Z,40.33
2019-01-23T04:36:03.716Z,39.60
2019-01-23T04:38:33.651Z,41.87
2019-01-23T04:41:03.580Z,35.67
2019-01-23T04:43:33.467Z,42.93
2019-01-23T04:46:03.378Z,40.50
2019-01-23T04:48:33.305Z,41.67
2019-01-23T04:51:13.924Z,55.43
2019-01-23T04:53:46.078Z,43.53
2019-01-23T04:56:15.985Z,42.70
2019-01-23T04:58:45.930Z,42.77
2019-01-23T05:01:15.831Z,49.03
2019-01-23T05:03:45.811Z,42.80
2019-01-23T05:06:15.816Z,43.30
2019-01-23T05:08:45.818Z,39.47
2019-01-23T05:11:15.790Z,46.07
2019-01-23T05:13:45.809Z,40.77
2019-01-23T05:16:15.791Z,34.90
2019-01-23T05:18:45.728Z,36.60
2019-01-23T05:21:16.285Z,37.67
2019-01-23T05:23:47.019Z,41.67
2019-01-23T05:26:17.401Z,35.07
2019-01-23T05:28:47.497Z,40.07
2019-01-23T05:31:17.467Z,43.57
2019-01-23T05:33:47.396Z,40.00
2019-01-23T05:36:17.477Z,39.77
2019-01-23T05:38:47.433Z,32.97
2019-01-23T05:41:17.433Z,37.63
2019-01-23T05:43:47.620Z,29.17
2019-01-23T05:46:17.612Z,25.50
2019-01-23T05:48:47.539Z,28.43
2019-01-23T05:51:17.530Z,31.50
2019-01-23T05:53:47.475Z,32.77
2019-01-23T05:56:17.405Z,33.77
2019-01-23T05:58:48.059Z,27.30
2019-01-23T06:01:18.225Z,30.80
2019-01-23T06:03:48.174Z,30.00
2019-01-23T06:06:18.109Z,24.73
2019-01-23T06:08:48.077Z,27.20
2019-01-23T06:11:18.201Z,24.50
2019-01-23T06:13:48.524Z,33.03
2019-01-23T06:16:18.631Z,26.17
2019-01-23T06:18:48.523Z,23.03
2019-01-23T06:21:18.450Z,28.73
2019-01-23T06:23:48.664Z,31.70
2019-01-23T06:26:19.039Z,25.13
2019-01-23T06:28:49.198Z,27.37
2019-01-23T06:31:19.335Z,21.83
2019-01-23T06:33:49.209Z,30.57
2019-01-23T06:36:19.176Z,21.47
2019-01-23T06:38:49.077Z,26.37
2019-01-23T06:41:18.932Z,26.63
2019-01-23T06:43:49.274Z,16.10
2019-01-23T06:46:19.190Z,20.70
2019-01-23T06:48:52.898Z,24.60
2019-01-23T06:51:23.284Z,26.20
2019-01-23T06:53:53.181Z,22.97
2019-01-23T06:56:23.164Z,23.73
2019-01-23T06:58:53.426Z,18.87
2019-01-23T07:01:23.373Z,20.23
2019-01-23T07:03:56.129Z,27.37
2019-01-23T07:06:26.191Z,18.43
2019-01-23T07:08:56.297Z,20.43
2019-01-23T07:11:26.200Z,25.13
2019-01-23T07:13:56.671Z,21.37
2019-01-23T07:16:26.842Z,21.53
2019-01-23T07:18:56.843Z,15.47
2019-01-23T07:21:26.817Z,12.97
2019-01-23T07:23:57.456Z,17.73
2019-01-23T07:26:27.471Z,15.47
2019-01-23T07:28:58.717Z,15.43
2019-01-23T07:31:28.549Z,20.03
2019-01-23T07:33:58.550Z,21.40
2019-01-23T07:36:28.669Z,20.00
2019-01-23T07:38:58.734Z,21.57
2019-01-23T07:41:28.620Z,15.50
2019-01-23T07:43:59.049Z,22.87
2019-01-23T07:46:28.922Z,26.00
2019-01-23T07:48:59.296Z,21.63
2019-01-23T07:51:29.304Z,16.50
2019-01-23T07:53:59.293Z,10.77
2019-01-23T07:56:29.127Z,15.07
2019-01-23T07:58:59.521Z,15.57
2019-01-23T08:01:29.418Z,16.10
2019-01-23T08:03:59.780Z,21.03
2019-01-23T08:06:29.673Z,13.73
2019-01-23T08:08:59.598Z,21.03
2019-01-23T08:11:29.493Z,15.93
2019-01-23T08:13:59.946Z,13.30
2019-01-23T08:16:29.912Z,16.07
2019-01-23T08:18:59.901Z,18.70
2019-01-23T08:21:30.224Z,13.13
2019-01-23T08:24:00.189Z,16.77
2019-01-23T08:26:30.113Z,18.57
2019-01-23T08:29:00.883Z,16.90
2019-01-23T08:31:30.778Z,15.83
2019-01-23T08:34:00.749Z,13.13
2019-01-23T08:36:30.714Z,12.07
2019-01-23T08:39:00.732Z,10.87
2019-01-23T08:41:30.621Z,12.07
2019-01-23T08:44:00.831Z,9.30
2019-01-23T08:46:30.733Z,14.83
2019-01-23T08:49:00.779Z,10.90
2019-01-23T08:51:30.734Z,10.13
2019-01-23T08:54:00.657Z,13.60
2019-01-23T08:56:30.718Z,9.97
2019-01-23T08:59:01.204Z,14.97
2019-01-23T09:01:31.158Z,9.33
2019-01-23T09:04:01.141Z,13.33
2019-01-23T09:06:31.043Z,10.60
2019-01-23T09:09:00.987Z,8.70
2019-01-23T09:11:30.843Z,6.13
2019-01-23T09:14:00.853Z,11.77
2019-01-23T09:16:31.149Z,10.23
2019-01-23T09:19:01.087Z,9.13
2019-01-23T09:21:31.057Z,8.83
2019-01-23T09:24:01.028Z,11.53
2019-01-23T09:26:30.956Z,9.90
2019-01-23T09:29:00.894Z,6.87
2019-01-23T09:31:56.975Z,8.60
2019-01-23T09:34:38.804Z,7.93
2019-01-23T09:37:49.839Z,8.70
2019-01-23T09:40:31.808Z,10.50
2019-01-23T09:43:27.781Z,8.63
2019-01-23T09:46:36.388Z,9.17
2019-01-23T09:49:41.010Z,11.07
2019-01-23T09:52:42.448Z,14.87
2019-01-23T09:55:13.796Z,10.50
2019-01-23T09:57:50.305Z,9.00
2019-01-23T10:00:23.736Z,9.03
2019-01-23T10:02:53.997Z,8.70
2019-01-23T10:05:23.925Z,7.27
2019-01-23T10:07:53.783Z,8.57
2019-01-23T10:10:23.769Z,9.83
2019-01-23T10:12:53.675Z,8.80
2019-01-23T10:15:53.958Z,8.73
2019-01-23T10:18:24.442Z,11.90
2019-01-23T10:20:54.342Z,9.60
2019-01-23T10:23:24.241Z,8.97
2019-01-23T10:25:54.122Z,12.47
2019-01-23T10:28:24.079Z,12.10
2019-01-23T10:30:53.972Z,9.20
2019-01-23T10:33:24.243Z,9.67
2019-01-23T10:35:54.472Z,8.10
2019-01-23T10:38:24.411Z,8.10
2019-01-23T10:40:54.293Z,9.87
2019-01-23T10:43:24.169Z,9.70
2019-01-23T10:45:54.081Z,9.80
2019-01-23T10:48:24.308Z,8.50
2019-01-23T10:50:54.270Z,10.40
2019-01-23T10:53:24.204Z,11.60
2019-01-23T10:55:54.097Z,10.30
2019-01-23T10:58:24.178Z,8.77
2019-01-23T11:00:54.368Z,9.80
2019-01-23T11:03:24.787Z,6.20
2019-01-23T11:05:54.700Z,11.43
2019-01-23T11:08:24.655Z,9.83
2019-01-23T11:10:54.621Z,8.37
2019-01-23T11:13:24.485Z,9.73
2019-01-23T11:15:54.524Z,9.73
2019-01-23T11:18:24.815Z,8.53
2019-01-23T11:20:54.712Z,10.77
2019-01-23T11:23:25.076Z,9.77
2019-01-23T11:25:55.064Z,12.87
2019-01-23T11:28:25.249Z,10.43
2019-01-23T11:30:55.151Z,10.13
2019-01-23T11:33:25.443Z,9.57
2019-01-23T11:35:55.384Z,9.63
2019-01-23T11:38:25.440Z,8.43
2019-01-23T11:40:55.814Z,6.27
2019-01-23T11:43:25.667Z,11.33
2019-01-23T11:45:55.727Z,10.47
2019-01-23T11:48:25.579Z,9.40
2019-01-23T11:50:55.878Z,8.37
2019-01-23T11:53:25.855Z,5.90
2019-01-23T11:55:55.754Z,8.00
2019-01-23T11:58:25.635Z,6.13
2019-01-23T12:00:55.712Z,6.47
2019-01-23T12:03:25.615Z,7.27
2019-01-23T12:05:55.875Z,6.00
2019-01-23T12:08:25.917Z,9.17
2019-01-23T12:10:55.862Z,9.80
2019-01-23T12:13:25.772Z,10.17
2019-01-23T12:15:55.728Z,8.60
2019-01-23T12:18:25.931Z,15.47
2019-01-23T12:20:56.240Z,8.17
2019-01-23T12:23:26.517Z,5.73
2019-01-23T12:25:56.409Z,10.57
2019-01-23T12:28:26.327Z,8.50
2019-01-23T12:30:56.564Z,13.37
2019-01-23T12:33:27.574Z,10.10
2019-01-23T12:35:57.842Z,8.63
2019-01-23T12:38:28.060Z,6.83
2019-01-23T12:40:57.986Z,6.93
2019-01-23T12:43:28.046Z,8.40
2019-01-23T12:45:58.114Z,7.40
2019-01-23T12:48:27.955Z,6.83
2019-01-23T12:50:58.603Z,5.87
2019-01-23T12:53:28.580Z,10.00
2019-01-23T12:55:58.438Z,7.83
2019-01-23T12:58:28.379Z,6.50
2019-01-23T13:00:58.361Z,6.60
2019-01-23T13:03:28.488Z,6.60
2019-01-23T13:05:59.023Z,6.90
2019-01-23T13:08:28.978Z,5.67
2019-01-23T13:10:58.834Z,6.77
2019-01-23T13:13:28.699Z,6.30
2019-01-23T13:15:58.660Z,6.37
2019-01-23T13:18:28.569Z,9.33
2019-01-23T13:20:58.855Z,6.73
2019-01-23T13:23:28.806Z,7.23
2019-01-23T13:25:58.818Z,6.97
2019-01-23T13:28:28.718Z,4.97
2019-01-23T13:30:58.704Z,7.07
2019-01-23T13:33:28.567Z,6.90
2019-01-23T13:35:58.447Z,5.73
2019-01-23T13:38:28.690Z,8.03
2019-01-23T13:40:58.569Z,7.57
2019-01-23T13:43:28.452Z,8.33
2019-01-23T13:45:58.385Z,6.90
2019-01-23T13:48:28.377Z,8.00
2019-01-23T13:51:00.469Z,9.90
2019-01-23T13:53:31.172Z,7.70
2019-01-23T13:56:01.072Z,8.40
2019-01-23T13:58:30.999Z,9.10
2019-01-23T14:01:00.911Z,8.43
2019-01-23T14:03:30.812Z,7.67
2019-01-23T14:06:00.754Z,5.80
2019-01-23T14:08:31.021Z,8.93
2019-01-23T14:11:01.024Z,7.07
2019-01-23T14:13:31.005Z,12.07
2019-01-23T14:16:00.987Z,10.37
2019-01-23T14:18:30.947Z,7.93
2019-01-23T14:21:01.256Z,9.47
2019-01-23T14:23:31.455Z,10.10
2019-01-23T14:26:01.341Z,8.70
2019-01-23T14:28:31.299Z,11.23
2019-01-23T14:31:01.266Z,10.40
2019-01-23T14:33:31.124Z,9.97
2019-01-23T14:36:01.069Z,9.70
2019-01-23T14:38:31.353Z,11.43
2019-01-23T14:41:01.251Z,14.03
2019-01-23T14:43:31.193Z,11.57
2019-01-23T14:46:01.120Z,10.13
2019-01-23T14:48:31.124Z,9.60
2019-01-23T14:51:01.155Z,11.13
2019-01-23T14:53:31.022Z,9.63
2019-01-23T14:56:01.196Z,10.80
2019-01-23T14:58:31.134Z,9.93
2019-01-23T15:01:01.056Z,10.50
2019-01-23T15:03:31.177Z,14.30
2019-01-23T15:06:01.156Z,10.53
2019-01-23T15:08:31.140Z,12.23
2019-01-23T15:11:01.484Z,8.80
2019-01-23T15:13:31.423Z,10.13
2019-01-23T15:16:01.371Z,13.60
2019-01-23T15:18:31.248Z,10.80
2019-01-23T15:21:01.176Z,12.77
2019-01-23T15:23:31.072Z,10.03
2019-01-23T15:26:01.312Z,11.97
2019-01-23T15:28:31.245Z,11.50
2019-01-23T15:31:01.110Z,15.33
2019-01-23T15:33:30.988Z,17.20
2019-01-23T15:36:00.914Z,14.97
2019-01-23T15:38:30.784Z,13.33
2019-01-23T15:41:01.027Z,9.97
2019-01-23T15:43:30.950Z,11.00
2019-01-23T15:46:00.835Z,15.60
2019-01-23T15:48:30.725Z,11.70
2019-01-23T15:51:00.716Z,11.60
2019-01-23T15:53:30.634Z,19.23
2019-01-23T15:56:00.611Z,13.87
2019-01-23T15:58:30.950Z,13.83
2019-01-23T16:01:00.978Z,17.17
2019-01-23T16:03:30.901Z,18.30
2019-01-23T16:06:00.844Z,20.70
2019-01-23T16:08:30.739Z,13.70
2019-01-23T16:11:00.701Z,19.13
2019-01-23T16:13:30.916Z,22.23
2019-01-23T16:16:00.755Z,14.73
2019-01-23T16:18:31.035Z,19.23
2019-01-23T16:21:01.007Z,17.40
2019-01-23T16:23:31.114Z,20.10
2019-01-23T16:26:00.988Z,19.93
2019-01-23T16:28:31.240Z,15.83
2019-01-23T16:31:01.171Z,18.30
2019-01-23T16:33:31.239Z,21.00
2019-01-23T16:36:01.217Z,20.53
2019-01-23T16:38:31.207Z,22.17
2019-01-23T16:41:01.606Z,17.47
2019-01-23T16:43:32.781Z,21.57
2019-01-23T16:46:02.786Z,23.07
2019-01-23T16:48:32.686Z,19.23
2019-01-23T16:51:05.159Z,29.63
2019-01-23T16:53:35.088Z,27.43
2019-01-23T16:56:05.408Z,28.80
2019-01-23T16:58:35.727Z,25.60
2019-01-23T17:01:05.650Z,24.37
2019-01-23T17:03:35.756Z,30.77
2019-01-23T17:06:06.190Z,27.07
2019-01-23T17:08:36.082Z,21.83
2019-01-23T17:11:07.234Z,22.30
2019-01-23T17:13:37.824Z,25.93
2019-01-23T17:16:07.812Z,23.47
2019-01-23T17:18:37.725Z,25.57
2019-01-23T17:21:08.151Z,19.73
2019-01-23T17:23:38.033Z,19.60
2019-01-23T17:26:08.126Z,22.40
2019-01-23T17:28:38.622Z,24.23
2019-01-23T17:31:08.706Z,23.37
2019-01-23T17:33:38.605Z,21.20
2019-01-23T17:36:08.581Z,25.40
2019-01-23T17:38:38.482Z,23.53
2019-01-23T17:41:08.571Z,27.63
2019-01-23T17:43:40.304Z,29.30
2019-01-23T17:46:10.203Z,22.17
2019-01-23T17:48:40.265Z,28.67
2019-01-23T17:51:10.258Z,24.43
2019-01-23T17:53:40.214Z,21.60
2019-01-23T17:56:10.121Z,24.47
2019-01-23T17:58:40.276Z,23.90
2019-01-23T18:01:10.569Z,21.10
2019-01-23T18:03:42.861Z,23.33
2019-01-23T18:06:12.809Z,26.77
2019-01-23T18:08:42.694Z,23.00
2019-01-23T18:11:12.636Z,24.50
2019-01-23T18:13:42.727Z,22.13
2019-01-23T18:16:13.534Z,23.90
2019-01-23T18:18:43.457Z,21.93
2019-01-23T18:21:13.462Z,22.13
2019-01-23T18:23:43.501Z,25.07
2019-01-23T18:26:13.427Z,23.63
2019-01-23T18:28:43.905Z,25.60
2019-01-23T18:31:40.881Z,27.50
2019-01-23T18:34:51.560Z,25.60
2019-01-23T18:37:50.499Z,21.73
2019-01-23T18:41:06.631Z,24.13
2019-01-23T18:44:20.141Z,28.53
2019-01-23T18:47:03.865Z,21.83
2019-01-23T18:49:43.889Z,26.90
2019-01-23T18:52:15.123Z,20.47
2019-01-23T18:54:45.820Z,25.27
2019-01-23T18:57:19.121Z,25.13
2019-01-23T18:59:48.991Z,22.90
2019-01-23T19:02:19.565Z,25.73
2019-01-23T19:04:49.745Z,23.60
2019-01-23T19:07:19.800Z,25.87
2019-01-23T19:09:49.723Z,30.77
2019-01-23T19:12:19.810Z,25.57
2019-01-23T19:14:49.691Z,24.40
2019-01-23T19:17:19.652Z,22.43
2019-01-23T19:19:49.583Z,25.20
2019-01-23T19:22:19.483Z,26.43
2019-01-23T19:24:49.371Z,22.83
2019-01-23T19:27:19.306Z,26.87
2019-01-23T19:29:49.223Z,24.93
2019-01-23T19:32:19.206Z,28.73
2019-01-23T19:34:49.118Z,31.63
2019-01-23T19:37:19.014Z,28.73
2019-01-23T19:39:48.931Z,29.60
2019-01-23T19:42:18.908Z,24.27
2019-01-23T19:44:50.036Z,24.83
2019-01-23T19:47:19.901Z,23.20
2019-01-23T19:49:49.836Z,26.17
2019-01-23T19:52:19.771Z,26.67
2019-01-23T19:54:49.680Z,26.33
2019-01-23T19:57:20.039Z,25.20
2019-01-23T19:59:50.366Z,25.90
2019-01-23T20:02:20.268Z,24.70
2019-01-23T20:04:50.251Z,21.67
2019-01-23T20:07:20.131Z,29.33
2019-01-23T20:09:49.976Z,21.87
2019-01-23T20:12:19.898Z,26.33
2019-01-23T20:14:50.188Z,22.90
2019-01-23T20:17:20.088Z,28.10
2019-01-23T20:19:50.124Z,22.77
2019-01-23T20:22:19.984Z,25.97
2019-01-23T20:24:49.963Z,23.23
2019-01-23T20:27:19.902Z,27.77
2019-01-23T20:29:50.042Z,29.77
2019-01-23T20:32:20.038Z,25.80
2019-01-23T20:34:50.002Z,28.93
2019-01-23T20:37:23.474Z,24.40
2019-01-23T20:39:51.380Z,24.07
2019-01-23T20:42:21.334Z,23.03
2019-01-23T20:44:51.710Z,24.13
2019-01-23T20:47:21.600Z,27.60
2019-01-23T20:49:51.643Z,28.33
2019-01-23T20:52:21.517Z,28.10
2019-01-23T20:54:51.748Z,27.37
2019-01-23T20:57:21.787Z,24.47
2019-01-23T20:59:51.876Z,28.60
2019-01-23T21:02:22.096Z,25.60
2019-01-23T21:04:52.035Z,28.07
2019-01-23T21:07:21.942Z,23.23
2019-01-23T21:09:51.888Z,24.57
2019-01-23T21:12:21.797Z,29.40
2019-01-23T21:14:51.788Z,25.40
2019-01-23T21:17:21.667Z,24.33
2019-01-23T21:19:51.629Z,25.53
2019-01-23T21:22:21.572Z,28.93
2019-01-23T21:24:51.474Z,28.33
2019-01-23T21:27:21.374Z,24.47
2019-01-23T21:29:51.289Z,27.23
2019-01-23T21:32:21.162Z,21.90
2019-01-23T21:34:51.083Z,25.50
2019-01-23T21:37:21.041Z,23.03
2019-01-23T21:39:50.942Z,27.20
2019-01-23T21:42:20.882Z,24.60
2019-01-23T21:44:50.767Z,25.23
2019-01-23T21:47:20.642Z,25.23
2019-01-23T21:49:50.679Z,21.50
2019-01-23T21:52:20.570Z,25.23
2019-01-23T21:54:50.472Z,24.20
2019-01-23T21:57:20.423Z,24.57
2019-01-23T21:59:50.286Z,26.27
2019-01-23T22:02:20.653Z,20.40
2019-01-23T22:04:50.616Z,29.13
2019-01-23T22:07:20.500Z,23.37
2019-01-23T22:09:50.348Z,26.27
2019-01-23T22:12:20.330Z,29.27
2019-01-23T22:14:50.191Z,29.63
2019-01-23T22:17:20.522Z,26.50
2019-01-23T22:19:50.462Z,23.07
2019-01-23T22:22:20.333Z,23.73
2019-01-23T22:24:50.249Z,27.83
2019-01-23T22:27:20.143Z,24.67
2019-01-23T22:29:50.053Z,21.90
2019-01-23T22:32:20.192Z,21.57
2019-01-23T22:34:50.121Z,26.43
2019-01-23T22:37:20.032Z,22.50
2019-01-23T22:39:49.886Z,25.03
2019-01-23T22:42:19.795Z,22.37
2019-01-23T22:44:49.667Z,22.53
2019-01-23T22:47:19.940Z,23.83
2019-01-23T22:49:49.870Z,27.03
2019-01-23T22:52:19.749Z,26.27
2019-01-23T22:54:49.654Z,23.83
2019-01-23T22:57:19.584Z,27.73
2019-01-23T22:59:49.454Z,30.03
2019-01-23T23:02:19.550Z,24.53
2019-01-23T23:04:49.816Z,24.73
2019-01-23T23:07:19.713Z,28.67
2019-01-23T23:09:49.589Z,24.77
2019-01-23T23:12:19.530Z,25.57
2019-01-23T23:14:49.366Z,25.50
2019-01-23T23:17:19.230Z,22.60
2019-01-23T23:19:49.553Z,27.37
2019-01-23T23:22:19.425Z,24.20
2019-01-23T23:24:49.391Z,21.70
2019-01-23T23:27:19.317Z,22.77
2019-01-23T23:29:49.347Z,24.33
2019-01-23T23:32:19.234Z,26.67
2019-01-23T23:34:49.566Z,21.37
2019-01-23T23:37:19.538Z,26.53
2019-01-23T23:39:49.495Z,21.00
2019-01-23T23:42:19.448Z,26.27
2019-01-23T23:44:49.374Z,22.70
2019-01-23T23:47:19.211Z,21.63
2019-01-23T23:49:49.250Z,24.47
2019-01-23T23:52:19.096Z,22.83
2019-01-23T23:54:49.667Z,23.30
2019-01-23T23:57:19.932Z,22.90
2019-01-23T23:59:49.916Z,23.63
